createdAt,value
2018-09-17T00:00:12.227Z,1.53
2018-09-17T00:02:41.139Z,1.70
2018-09-17T00:05:10.340Z,1.70
2018-09-17T00:07:39.535Z,1.90
2018-09-17T00:10:08.634Z,1.50
2018-09-17T00:12:38.107Z,1.87
2018-09-17T00:15:07.065Z,1.70
2018-09-17T00:17:36.425Z,1.70
2018-09-17T00:20:05.768Z,2.10
2018-09-17T00:22:34.590Z,2.00
2018-09-17T00:25:03.914Z,1.67
2018-09-17T00:27:32.905Z,2.30
2018-09-17T00:30:01.765Z,1.97
2018-09-17T00:32:31.114Z,1.93
2018-09-17T00:35:00.534Z,2.17
2018-09-17T00:37:29.686Z,2.10
2018-09-17T00:39:58.490Z,2.43
2018-09-17T00:42:27.314Z,1.93
2018-09-17T00:44:56.235Z,1.93
2018-09-17T00:47:25.007Z,2.47
2018-09-17T00:49:54.262Z,2.40
2018-09-17T00:52:23.554Z,2.70
2018-09-17T00:54:52.641Z,2.30
2018-09-17T00:57:22.129Z,2.50
2018-09-17T00:59:51.154Z,2.30
2018-09-17T01:02:20.464Z,2.20
2018-09-17T01:04:48.954Z,2.63
2018-09-17T01:07:18.038Z,2.40
2018-09-17T01:09:47.122Z,2.40
2018-09-17T01:12:15.924Z,2.70
2018-09-17T01:14:45.021Z,2.30
2018-09-17T01:17:14.166Z,2.90
2018-09-17T01:19:43.426Z,2.57
2018-09-17T01:22:12.272Z,2.60
2018-09-17T01:24:41.970Z,2.97
2018-09-17T01:27:10.902Z,2.87
2018-09-17T01:29:40.184Z,2.63
2018-09-17T01:32:09.632Z,2.50
2018-09-17T01:34:38.814Z,2.87
2018-09-17T01:37:08.019Z,2.43
2018-09-17T01:39:36.868Z,2.77
2018-09-17T01:42:05.943Z,2.90
2018-09-17T01:44:35.301Z,3.10
2018-09-17T01:47:04.187Z,2.50
2018-09-17T01:49:33.352Z,2.30
2018-09-17T01:52:02.890Z,2.90
2018-09-17T01:54:31.986Z,2.53
2018-09-17T01:57:01.141Z,2.63
2018-09-17T01:59:30.358Z,2.87
2018-09-17T02:01:59.574Z,2.70
2018-09-17T02:04:28.466Z,2.43
2018-09-17T02:06:57.922Z,2.47
2018-09-17T02:09:26.838Z,2.43
2018-09-17T02:11:56.230Z,2.30
2018-09-17T02:14:25.454Z,2.00
2018-09-17T02:16:54.450Z,2.43
2018-09-17T02:19:23.631Z,2.10
2018-09-17T02:21:52.792Z,2.60
2018-09-17T02:24:22.562Z,2.47
2018-09-17T02:26:51.740Z,2.20
2018-09-17T02:29:20.826Z,2.10
2018-09-17T02:31:49.373Z,2.40
2018-09-17T02:34:18.737Z,2.20
2018-09-17T02:36:47.601Z,2.10
2018-09-17T02:39:16.619Z,2.00
2018-09-17T02:41:46.917Z,2.30
2018-09-17T02:44:15.862Z,2.00
2018-09-17T02:46:45.374Z,2.17
2018-09-17T02:49:14.805Z,2.10
2018-09-17T02:51:44.143Z,2.00
2018-09-17T02:54:13.303Z,2.40
2018-09-17T02:56:42.541Z,2.13
2018-09-17T02:59:11.493Z,2.17
2018-09-17T03:01:40.099Z,2.30
2018-09-17T03:04:08.764Z,2.33
2018-09-17T03:06:37.636Z,2.43
2018-09-17T03:09:08.120Z,2.27
2018-09-17T03:11:37.388Z,2.20
2018-09-17T03:14:06.374Z,2.50
2018-09-17T03:16:39.817Z,3.00
2018-09-17T03:19:08.745Z,2.50
2018-09-17T03:21:37.496Z,2.43
2018-09-17T03:24:06.947Z,3.53
2018-09-17T03:26:36.464Z,2.90
2018-09-17T03:29:05.226Z,3.23
2018-09-17T03:31:34.414Z,3.00
2018-09-17T03:34:03.246Z,3.20
2018-09-17T03:36:32.849Z,3.00
2018-09-17T03:39:02.226Z,3.20
2018-09-17T03:41:31.636Z,3.00
2018-09-17T03:44:00.438Z,3.50
2018-09-17T03:46:29.777Z,2.87
2018-09-17T03:48:58.878Z,3.77
2018-09-17T03:51:27.478Z,3.23
2018-09-17T03:53:56.134Z,3.43
2018-09-17T03:56:25.186Z,3.30
2018-09-17T03:58:54.909Z,3.50
2018-09-17T04:01:23.817Z,3.40
2018-09-17T04:03:53.162Z,3.40
2018-09-17T04:06:22.178Z,3.00
2018-09-17T04:08:51.174Z,3.73
2018-09-17T04:11:21.047Z,3.20
2018-09-17T04:13:50.726Z,3.40
2018-09-17T04:16:19.727Z,3.50
2018-09-17T04:18:48.590Z,3.40
2018-09-17T04:21:17.482Z,3.20
2018-09-17T04:23:47.559Z,3.10
2018-09-17T04:26:17.001Z,3.13
2018-09-17T04:28:46.874Z,3.30
2018-09-17T04:31:15.929Z,3.43
2018-09-17T04:33:44.858Z,3.10
2018-09-17T04:36:14.599Z,3.30
2018-09-17T04:38:44.247Z,2.93
2018-09-17T04:41:14.270Z,3.37
2018-09-17T04:43:43.250Z,3.20
2018-09-17T04:46:12.832Z,3.07
2018-09-17T04:48:41.766Z,2.77
2018-09-17T04:51:11.032Z,3.23
2018-09-17T04:53:40.450Z,3.20
2018-09-17T04:56:09.509Z,3.00
2018-09-17T04:58:38.786Z,3.47
2018-09-17T05:01:07.957Z,3.23
2018-09-17T05:03:37.407Z,3.33
2018-09-17T05:06:06.799Z,3.27
2018-09-17T05:08:36.082Z,3.03
2018-09-17T05:11:06.400Z,3.00
2018-09-17T05:13:35.399Z,2.93
2018-09-17T05:16:04.383Z,3.50
2018-09-17T05:18:33.585Z,3.43
2018-09-17T05:21:02.846Z,3.30
2018-09-17T05:23:32.114Z,3.27
2018-09-17T05:26:00.669Z,2.80
2018-09-17T05:28:29.695Z,3.30
2018-09-17T05:30:59.378Z,3.13
2018-09-17T05:33:28.994Z,3.20
2018-09-17T05:35:58.818Z,3.00
2018-09-17T05:38:28.746Z,2.93
2018-09-17T05:40:58.110Z,3.47
2018-09-17T05:43:27.350Z,2.97
2018-09-17T05:45:56.874Z,3.30
2018-09-17T05:48:26.247Z,2.80
2018-09-17T05:50:56.539Z,2.90
2018-09-17T05:53:25.638Z,2.80
2018-09-17T05:55:55.010Z,3.17
2018-09-17T05:58:24.303Z,2.93
2018-09-17T06:00:53.645Z,2.80
2018-09-17T06:03:22.863Z,3.10
2018-09-17T06:05:52.220Z,2.90
2018-09-17T06:08:22.484Z,2.87
2018-09-17T06:10:51.626Z,2.80
2018-09-17T06:13:20.502Z,2.63
2018-09-17T06:15:53.838Z,2.53
2018-09-17T06:18:23.442Z,2.90
2018-09-17T06:20:52.701Z,2.93
2018-09-17T06:23:22.846Z,3.00
2018-09-17T06:25:52.272Z,2.93
2018-09-17T06:28:21.813Z,3.03
2018-09-17T06:30:52.106Z,2.50
2018-09-17T06:33:21.642Z,2.63
2018-09-17T06:35:50.728Z,2.70
2018-09-17T06:38:20.324Z,2.50
2018-09-17T06:40:49.766Z,2.53
2018-09-17T06:43:19.782Z,2.60
2018-09-17T06:45:48.862Z,2.60
2018-09-17T06:48:18.011Z,2.80
2018-09-17T06:50:47.336Z,2.63
2018-09-17T06:53:16.203Z,2.70
2018-09-17T06:55:44.890Z,2.30
2018-09-17T06:58:15.002Z,2.67
2018-09-17T07:00:43.909Z,2.40
2018-09-17T07:03:12.770Z,2.40
2018-09-17T07:05:42.157Z,2.27
2018-09-17T07:08:11.477Z,2.20
2018-09-17T07:10:40.518Z,2.43
2018-09-17T07:13:11.054Z,2.10
2018-09-17T07:15:40.320Z,2.17
2018-09-17T07:18:09.845Z,2.77
2018-09-17T07:20:38.582Z,2.30
2018-09-17T07:23:07.529Z,2.30
2018-09-17T07:25:36.325Z,2.67
2018-09-17T07:28:05.377Z,2.20
2018-09-17T07:30:36.238Z,2.20
2018-09-17T07:33:05.610Z,2.03
2018-09-17T07:35:35.190Z,2.10
2018-09-17T07:38:04.360Z,2.07
2018-09-17T07:40:33.615Z,2.13
2018-09-17T07:43:02.877Z,1.87
2018-09-17T07:45:32.571Z,1.90
2018-09-17T07:48:01.685Z,2.07
2018-09-17T07:50:30.590Z,2.33
2018-09-17T07:52:59.936Z,3.00
2018-09-17T07:55:28.798Z,2.00
2018-09-17T07:57:58.251Z,2.40
2018-09-17T08:00:28.182Z,2.90
2018-09-17T08:02:57.147Z,2.70
2018-09-17T08:05:26.578Z,1.90
2018-09-17T08:07:55.686Z,2.53
2018-09-17T08:10:26.150Z,1.80
2018-09-17T08:12:55.418Z,2.27
2018-09-17T08:15:24.471Z,2.83
2018-09-17T08:17:53.652Z,1.87
2018-09-17T08:20:23.783Z,2.13
2018-09-17T08:22:53.058Z,2.70
2018-09-17T08:25:22.001Z,2.20
2018-09-17T08:27:51.406Z,1.90
2018-09-17T08:30:21.098Z,2.20
2018-09-17T08:32:50.735Z,1.97
2018-09-17T08:35:19.962Z,2.03
2018-09-17T08:37:49.050Z,1.87
2018-09-17T08:40:18.182Z,2.03
2018-09-17T08:42:47.506Z,2.73
2018-09-17T08:45:16.771Z,2.47
2018-09-17T08:47:45.884Z,1.73
2018-09-17T08:50:15.352Z,2.20
2018-09-17T08:52:44.554Z,2.43
2018-09-17T08:55:18.412Z,2.60
2018-09-17T08:57:52.567Z,1.70
2018-09-17T09:00:22.542Z,1.90
2018-09-17T09:02:56.031Z,2.47
2018-09-17T09:05:45.812Z,2.57
2018-09-17T09:08:15.802Z,2.37
2018-09-17T09:10:48.416Z,1.80
2018-09-17T09:13:24.215Z,2.27
2018-09-17T09:15:52.620Z,2.00
2018-09-17T09:18:21.678Z,2.20
2018-09-17T09:20:51.564Z,2.37
2018-09-17T09:23:20.024Z,2.57
2018-09-17T09:25:48.687Z,1.87
2018-09-17T09:28:17.776Z,1.87
2018-09-17T09:30:47.050Z,2.43
2018-09-17T09:33:16.277Z,1.90
2018-09-17T09:35:45.208Z,2.00
2018-09-17T09:38:14.365Z,1.87
2018-09-17T09:40:44.211Z,1.77
2018-09-17T09:43:13.653Z,2.10
2018-09-17T09:45:42.601Z,2.47
2018-09-17T09:48:11.904Z,1.63
2018-09-17T09:50:40.871Z,1.60
2018-09-17T09:53:09.756Z,2.13
2018-09-17T09:55:38.541Z,1.50
2018-09-17T09:58:08.084Z,1.60
2018-09-17T10:00:42.710Z,1.63
2018-09-17T10:03:21.559Z,2.20
2018-09-17T10:05:50.616Z,1.80
2018-09-17T10:08:19.608Z,1.73
2018-09-17T10:10:53.727Z,2.07
2018-09-17T10:13:27.734Z,1.87
2018-09-17T10:15:57.771Z,1.87
2018-09-17T10:18:35.415Z,2.30
2018-09-17T10:21:04.276Z,1.90
2018-09-17T10:23:33.054Z,1.90
2018-09-17T10:26:02.308Z,1.50
2018-09-17T10:28:30.979Z,1.70
2018-09-17T10:30:59.739Z,2.00
2018-09-17T10:33:28.827Z,2.10
2018-09-17T10:35:57.424Z,1.40
2018-09-17T10:38:27.256Z,2.00
2018-09-17T10:41:00.344Z,1.93
2018-09-17T10:43:28.975Z,2.07
2018-09-17T10:45:58.844Z,2.00
2018-09-17T10:48:28.124Z,1.80
2018-09-17T10:50:57.040Z,1.73
2018-09-17T10:53:26.332Z,1.77
2018-09-17T10:55:55.038Z,2.27
2018-09-17T10:58:28.439Z,1.90
2018-09-17T11:00:57.409Z,1.87
2018-09-17T11:03:26.056Z,1.83
2018-09-17T11:05:54.813Z,1.90
2018-09-17T11:08:23.806Z,1.70
2018-09-17T11:10:52.833Z,1.67
2018-09-17T11:13:22.199Z,1.70
2018-09-17T11:15:51.155Z,1.57
2018-09-17T11:18:19.738Z,1.73
2018-09-17T11:20:49.859Z,2.33
2018-09-17T11:23:18.664Z,1.50
2018-09-17T11:25:47.912Z,1.40
2018-09-17T11:28:17.103Z,1.30
2018-09-17T11:30:46.240Z,2.03
2018-09-17T11:33:15.308Z,1.20
2018-09-17T11:35:44.482Z,1.40
2018-09-17T11:38:13.150Z,1.37
2018-09-17T11:40:42.088Z,1.30
2018-09-17T11:43:11.952Z,1.33
2018-09-17T11:45:40.816Z,1.63
2018-09-17T11:48:16.147Z,1.40
2018-09-17T11:50:45.357Z,1.50
2018-09-17T11:53:14.368Z,1.33
2018-09-17T11:55:43.341Z,1.47
2018-09-17T11:58:13.044Z,1.17
2018-09-17T12:00:47.228Z,1.00
2018-09-17T12:03:21.322Z,1.30
2018-09-17T12:05:56.008Z,1.23
2018-09-17T12:08:25.230Z,1.10
2018-09-17T12:10:54.325Z,1.20
2018-09-17T12:13:23.353Z,1.00
2018-09-17T12:15:52.529Z,1.33
2018-09-17T12:18:21.510Z,1.27
2018-09-17T12:20:50.360Z,1.40
2018-09-17T12:23:19.041Z,1.20
2018-09-17T12:25:48.520Z,1.63
2018-09-17T12:28:18.220Z,1.10
2018-09-17T12:30:48.040Z,0.90
2018-09-17T12:33:16.767Z,1.00
2018-09-17T12:35:45.849Z,1.10
2018-09-17T12:38:14.951Z,1.17
2018-09-17T12:40:43.920Z,1.07
2018-09-17T12:43:12.557Z,1.13
2018-09-17T12:45:41.571Z,1.10
2018-09-17T12:48:10.522Z,1.03
2018-09-17T12:50:39.632Z,1.10
2018-09-17T12:53:08.904Z,1.03
2018-09-17T12:55:37.636Z,1.00
2018-09-17T12:58:06.948Z,1.10
2018-09-17T13:00:35.588Z,0.80
2018-09-17T13:03:04.586Z,1.33
2018-09-17T13:05:33.708Z,0.87
2018-09-17T13:08:02.276Z,0.97
2018-09-17T13:10:31.351Z,0.93
2018-09-17T13:13:01.032Z,1.20
2018-09-17T13:15:29.707Z,1.33
2018-09-17T13:17:58.800Z,1.00
2018-09-17T13:20:28.000Z,1.10
2018-09-17T13:22:57.164Z,0.90
2018-09-17T13:25:26.184Z,1.10
2018-09-17T13:27:55.115Z,1.07
2018-09-17T13:30:24.580Z,1.30
2018-09-17T13:33:00.005Z,1.20
2018-09-17T13:35:29.096Z,1.37
2018-09-17T13:37:58.075Z,1.20
2018-09-17T13:40:27.490Z,1.17
2018-09-17T13:42:56.572Z,0.90
2018-09-17T13:45:26.186Z,1.00
2018-09-17T13:47:55.079Z,1.37
2018-09-17T13:50:25.575Z,1.17
2018-09-17T13:52:54.837Z,1.10
2018-09-17T13:55:23.962Z,1.20
2018-09-17T13:57:52.684Z,1.33
2018-09-17T14:00:21.373Z,1.20
2018-09-17T14:02:50.700Z,1.00
2018-09-17T14:05:19.651Z,1.13
2018-09-17T14:07:48.486Z,1.27
2018-09-17T14:10:17.523Z,1.20
2018-09-17T14:12:46.038Z,1.00
2018-09-17T14:15:15.544Z,1.30
2018-09-17T14:17:43.999Z,1.03
2018-09-17T14:20:13.097Z,1.13
2018-09-17T14:22:41.881Z,1.10
2018-09-17T14:25:11.199Z,1.53
2018-09-17T14:27:40.549Z,0.93
2018-09-17T14:30:09.424Z,1.30
2018-09-17T14:32:43.505Z,1.20
2018-09-17T14:35:12.491Z,1.03
2018-09-17T14:37:41.580Z,1.03
2018-09-17T14:40:10.808Z,1.00
2018-09-17T14:42:39.944Z,1.00
2018-09-17T14:45:09.218Z,0.90
2018-09-17T14:47:38.455Z,1.13
2018-09-17T14:50:07.839Z,0.97
2018-09-17T14:52:36.883Z,1.10
2018-09-17T14:55:06.112Z,0.97
2018-09-17T14:57:35.052Z,1.20
2018-09-17T15:00:04.622Z,1.00
2018-09-17T15:02:33.434Z,1.00
2018-09-17T15:05:02.454Z,0.97
2018-09-17T15:07:31.708Z,0.80
2018-09-17T15:10:00.409Z,0.70
2018-09-17T15:12:29.819Z,0.70
2018-09-17T15:14:58.921Z,0.67
2018-09-17T15:17:27.861Z,0.80
2018-09-17T15:19:56.854Z,1.00
2018-09-17T15:22:26.221Z,1.20
2018-09-17T15:24:54.897Z,1.07
2018-09-17T15:27:24.636Z,1.00
2018-09-17T15:29:53.855Z,1.10
2018-09-17T15:32:22.637Z,0.67
2018-09-17T15:34:51.964Z,0.70
2018-09-17T15:37:21.525Z,0.83
2018-09-17T15:39:50.572Z,0.90
2018-09-17T15:42:19.572Z,0.90
2018-09-17T15:44:49.500Z,0.80
2018-09-17T15:47:19.499Z,0.80
2018-09-17T15:49:48.519Z,0.73
2018-09-17T15:52:17.693Z,1.20
2018-09-17T15:54:46.410Z,1.00
2018-09-17T15:57:15.920Z,0.83
2018-09-17T15:59:44.959Z,0.83
2018-09-17T16:02:13.721Z,0.63
2018-09-17T16:04:42.928Z,0.73
2018-09-17T16:07:12.344Z,1.20
2018-09-17T16:09:41.213Z,0.77
2018-09-17T16:12:10.219Z,0.70
2018-09-17T16:14:39.533Z,0.90
2018-09-17T16:17:08.976Z,0.77
2018-09-17T16:19:38.207Z,0.80
2018-09-17T16:22:07.234Z,0.77
2018-09-17T16:24:36.300Z,0.80
2018-09-17T16:27:05.078Z,0.70
2018-09-17T16:29:34.484Z,0.80
2018-09-17T16:32:03.320Z,0.70
2018-09-17T16:34:32.301Z,1.40
2018-09-17T16:37:01.049Z,0.90
2018-09-17T16:39:30.084Z,0.67
2018-09-17T16:41:59.005Z,0.80
2018-09-17T16:44:28.100Z,1.33
2018-09-17T16:46:57.092Z,1.00
2018-09-17T16:49:26.048Z,0.90
2018-09-17T16:51:55.216Z,0.80
2018-09-17T16:54:24.272Z,0.90
2018-09-17T16:56:53.192Z,0.77
2018-09-17T16:59:22.236Z,0.80
2018-09-17T17:01:51.139Z,0.97
2018-09-17T17:04:20.183Z,0.77
2018-09-17T17:06:50.770Z,0.70
2018-09-17T17:09:19.984Z,1.00
2018-09-17T17:11:49.528Z,0.87
2018-09-17T17:14:18.535Z,1.17
2018-09-17T17:16:48.376Z,1.00
2018-09-17T17:19:17.945Z,1.00
2018-09-17T17:21:47.464Z,1.13
2018-09-17T17:24:17.225Z,0.87
2018-09-17T17:26:46.434Z,0.90
2018-09-17T17:29:15.580Z,0.90
2018-09-17T17:31:44.601Z,1.20
2018-09-17T17:34:13.828Z,0.90
2018-09-17T17:36:43.164Z,0.90
2018-09-17T17:39:12.235Z,1.00
2018-09-17T17:41:41.780Z,1.10
2018-09-17T17:44:11.359Z,1.10
2018-09-17T17:46:56.889Z,1.23
2018-09-17T17:49:26.193Z,1.10
2018-09-17T17:51:56.398Z,1.20
2018-09-17T18:00:18.850Z,0.80
2018-09-17T18:02:48.528Z,1.37
2018-09-17T18:05:17.729Z,0.73
2018-09-17T18:07:47.255Z,1.17
2018-09-17T18:10:16.501Z,1.03
2018-09-17T18:12:45.561Z,0.80
2018-09-17T18:15:16.318Z,0.83
2018-09-17T18:17:45.264Z,0.80
2018-09-17T18:20:15.301Z,1.33
2018-09-17T18:22:44.839Z,1.00
2018-09-17T18:25:14.519Z,0.87
2018-09-17T18:27:44.275Z,1.00
2018-09-17T18:30:13.712Z,1.07
2018-09-17T18:32:43.613Z,0.83
2018-09-17T18:35:12.877Z,0.90
2018-09-17T18:37:41.931Z,1.03
2018-09-17T18:40:11.290Z,0.63
2018-09-17T18:42:41.597Z,0.80
2018-09-17T18:45:11.265Z,0.70
2018-09-17T18:47:40.341Z,0.93
2018-09-17T18:50:10.169Z,0.87
2018-09-17T18:52:41.977Z,0.80
2018-09-17T18:55:11.484Z,0.87
2018-09-17T18:57:41.301Z,0.80
2018-09-17T19:00:11.089Z,0.90
2018-09-17T19:02:40.722Z,1.00
2018-09-17T19:05:10.112Z,0.83
2018-09-17T19:07:40.072Z,1.23
2018-09-17T19:10:09.185Z,0.77
2018-09-17T19:12:38.921Z,1.33
2018-09-17T19:15:12.935Z,0.83
2018-09-17T19:17:43.073Z,0.80
2018-09-17T19:20:12.652Z,1.10
2018-09-17T19:22:47.284Z,1.00
2018-09-17T19:25:17.804Z,0.83
2018-09-17T19:27:52.435Z,0.80
2018-09-17T19:30:21.922Z,0.80
2018-09-17T19:32:51.329Z,0.80
2018-09-17T19:35:20.695Z,0.80
2018-09-17T19:37:55.035Z,0.80
2018-09-17T19:40:24.879Z,0.90
2018-09-17T19:42:54.182Z,1.40
2018-09-17T19:46:32.766Z,0.90
2018-09-17T19:49:02.484Z,1.00
2018-09-17T19:51:36.840Z,1.00
2018-09-17T19:54:05.908Z,0.90
2018-09-17T19:56:35.798Z,0.97
2018-09-17T19:59:10.282Z,1.03
2018-09-17T20:01:40.192Z,1.23
2018-09-17T20:04:14.184Z,1.20
2018-09-17T20:06:43.343Z,1.13
2018-09-17T20:09:12.950Z,1.00
2018-09-17T20:11:42.308Z,1.00
2018-09-17T20:14:12.316Z,0.90
2018-09-17T20:16:41.761Z,1.27
2018-09-17T20:19:11.119Z,1.13
2018-09-17T20:21:40.343Z,0.90
2018-09-17T20:24:09.945Z,0.97
2018-09-17T20:26:39.061Z,1.13
2018-09-17T20:29:08.061Z,1.20
2018-09-17T20:31:37.285Z,0.93
2018-09-17T20:34:06.765Z,1.30
2018-09-17T20:36:35.668Z,1.17
2018-09-17T20:39:07.582Z,1.10
2018-09-17T20:41:36.358Z,1.30
2018-09-17T20:44:05.463Z,1.17
2018-09-17T20:46:34.443Z,0.97
2018-09-17T20:49:03.708Z,1.13
2018-09-17T20:51:32.132Z,0.73
2018-09-17T20:54:01.035Z,1.10
2018-09-17T20:56:29.944Z,0.73
2018-09-17T20:58:58.963Z,1.50
2018-09-17T21:01:28.057Z,1.40
2018-09-17T21:03:57.472Z,1.13
2018-09-17T21:06:26.552Z,1.23
2018-09-17T21:08:55.799Z,1.30
2018-09-17T21:11:24.825Z,1.37
2018-09-17T21:13:54.064Z,1.30
2018-09-17T21:16:23.375Z,1.80
2018-09-17T21:18:52.417Z,1.20
2018-09-17T21:21:21.969Z,1.43
2018-09-17T21:23:51.031Z,1.57
2018-09-17T21:26:20.428Z,1.53
2018-09-17T21:28:49.795Z,1.43
2018-09-17T21:31:19.340Z,1.30
2018-09-17T21:33:48.010Z,1.43
2018-09-17T21:36:17.546Z,1.10
2018-09-17T21:38:47.551Z,1.47
2018-09-17T21:41:16.448Z,1.20
2018-09-17T21:43:45.291Z,1.20
2018-09-17T21:46:13.976Z,1.50
2018-09-17T21:48:43.016Z,1.27
2018-09-17T21:51:12.201Z,1.90
2018-09-17T21:53:41.150Z,1.30
2018-09-17T21:56:10.481Z,1.20
2018-09-17T21:58:39.656Z,1.47
2018-09-17T22:01:09.222Z,1.27
2018-09-17T22:03:37.528Z,1.50
2018-09-17T22:06:06.607Z,1.40
2018-09-17T22:08:36.037Z,1.50
2018-09-17T22:11:05.168Z,1.53
2018-09-17T22:13:34.382Z,1.50
2018-09-17T22:16:03.115Z,1.50
2018-09-17T22:18:32.339Z,1.40
2018-09-17T22:21:01.435Z,1.70
2018-09-17T22:23:31.183Z,1.30
2018-09-17T22:26:00.265Z,1.13
2018-09-17T22:28:29.295Z,1.47
2018-09-17T22:30:58.570Z,1.20
2018-09-17T22:33:27.500Z,1.10
2018-09-17T22:35:56.448Z,1.30
2018-09-17T22:38:25.844Z,1.40
2018-09-17T22:40:54.599Z,1.47
2018-09-17T22:43:23.231Z,1.87
2018-09-17T22:45:52.791Z,1.30
2018-09-17T22:48:21.695Z,1.33
2018-09-17T22:50:50.787Z,1.33
2018-09-17T22:53:20.456Z,1.23
2018-09-17T22:55:49.307Z,1.23
2018-09-17T22:58:19.421Z,1.57
2018-09-17T23:00:48.114Z,1.37
2018-09-17T23:03:17.251Z,1.30
2018-09-17T23:05:47.090Z,1.50
2018-09-17T23:08:16.056Z,1.30
2018-09-17T23:10:44.793Z,1.47
2018-09-17T23:13:14.083Z,1.63
2018-09-17T23:15:43.191Z,1.63
2018-09-17T23:18:12.332Z,1.57
2018-09-17T23:20:41.124Z,1.27
2018-09-17T23:23:10.523Z,1.03
2018-09-17T23:25:39.160Z,1.57
2018-09-17T23:28:08.459Z,1.60
2018-09-17T23:30:37.304Z,1.30
2018-09-17T23:33:06.383Z,1.63
2018-09-17T23:35:36.008Z,1.30
2018-09-17T23:38:05.440Z,1.40
2018-09-17T23:40:34.464Z,1.63
2018-09-17T23:43:04.040Z,1.33
2018-09-17T23:45:33.025Z,1.37
2018-09-17T23:48:02.145Z,1.53
2018-09-17T23:50:31.342Z,1.73
2018-09-17T23:53:00.812Z,1.33
2018-09-17T23:55:29.607Z,1.30
2018-09-17T23:57:59.042Z,1.40
